Time;durP1;ratioP1;P1;durP2;ratioP2;P2;SDS_P1;SDS_P2;PMS_P1;PMS_P2;Temp;Humidity;BMP_temperature;BMP_pressure;BME280_temperature;BME280_humidity;BME280_pressure;Samples;Min_cycle;Max_cycle;Signal;HPM_P1;HPM_P2
2022/05/24 00:01:24;;;;;;;1.98;0.93;;;14.00;99.90;;;;;;5034077;28;20425;-70
2022/05/24 00:03:51;;;;;;;4.15;1.90;;;13.90;99.90;;;;;;5050944;28;20074;-70
2022/05/24 00:06:17;;;;;;;2.78;1.50;;;14.00;99.90;;;;;;5050682;28;20045;-70
2022/05/24 00:08:43;;;;;;;2.35;1.23;;;13.90;99.90;;;;;;5068640;28;20136;-70
2022/05/24 00:11:09;;;;;;;2.92;1.42;;;13.90;99.90;;;;;;5033031;28;20094;-70
2022/05/24 00:13:35;;;;;;;3.35;1.42;;;13.90;99.90;;;;;;5050682;28;20044;-71
2022/05/24 00:16:01;;;;;;;4.90;1.55;;;13.90;99.90;;;;;;5045161;28;20032;-70
2022/05/24 00:18:29;;;;;;;2.17;1.10;;;13.90;99.90;;;;;;5050593;28;20040;-70
2022/05/24 00:20:57;;;;;;;0.00;0.00;;;13.90;99.90;;;;;;5050264;28;20675;-70
2022/05/24 00:23:25;;;;;;;2.65;1.27;;;13.90;99.90;;;;;;5067548;28;20041;-70
2022/05/24 00:25:53;;;;;;;4.70;1.38;;;13.90;99.90;;;;;;5049847;28;20066;-70
2022/05/24 00:28:20;;;;;;;3.75;1.70;;;13.80;99.90;;;;;;5070464;28;20058;-70
2022/05/24 00:30:47;;;;;;;2.15;1.25;;;13.80;99.90;;;;;;5070529;28;20105;-70
2022/05/24 00:33:14;;;;;;;2.35;1.63;;;13.80;99.90;;;;;;5070781;28;20048;-70
2022/05/24 00:35:40;;;;;;;2.60;1.30;;;13.80;99.90;;;;;;5070341;28;20428;-70
2022/05/24 00:38:10;;;;;;;2.35;1.40;;;13.80;99.90;;;;;;5070613;28;20036;-70
2022/05/24 00:40:44;;;;;;;3.30;2.03;;;13.80;99.90;;;;;;5087359;28;20383;-70
2022/05/24 00:43:33;;;;;;;2.38;1.30;;;13.80;99.90;;;;;;5070716;28;20044;-70
2022/05/24 00:46:14;;;;;;;2.33;1.08;;;13.80;99.90;;;;;;5053970;28;20136;-70
2022/05/24 00:49:01;;;;;;;3.22;1.30;;;13.80;99.90;;;;;;5070564;28;20188;-70
2022/05/24 00:51:38;;;;;;;2.90;1.42;;;13.70;99.90;;;;;;5070058;28;20382;-70
2022/05/24 00:54:04;;;;;;;2.50;1.42;;;13.70;99.90;;;;;;5054003;28;20044;-70
2022/05/24 00:56:47;;;;;;;2.25;1.20;;;13.70;99.90;;;;;;5069229;28;20036;-70
2022/05/24 00:59:20;;;;;;;1.90;1.00;;;13.70;99.90;;;;;;5053723;28;20032;-70
2022/05/24 01:01:48;;;;;;;2.25;1.10;;;13.60;99.90;;;;;;5070082;28;20052;-70
2022/05/24 01:04:17;;;;;;;2.10;1.08;;;13.60;99.90;;;;;;5070045;28;20036;-70
2022/05/24 01:06:43;;;;;;;2.67;1.25;;;13.60;99.90;;;;;;5069798;28;20032;-70
2022/05/24 01:09:22;;;;;;;3.47;1.42;;;13.60;99.90;;;;;;5072899;28;20043;-70
2022/05/24 01:11:50;;;;;;;2.33;1.38;;;13.60;99.90;;;;;;5073853;28;20043;-70
2022/05/24 01:14:18;;;;;;;1.92;0.90;;;13.60;99.90;;;;;;5073975;28;20097;-70
2022/05/24 01:16:44;;;;;;;4.10;1.30;;;13.60;99.90;;;;;;5073866;28;20528;-70
2022/05/24 01:19:17;;;;;;;1.88;1.02;;;13.50;99.90;;;;;;5074091;28;20040;-70
2022/05/24 01:21:43;;;;;;;2.00;1.10;;;13.50;99.90;;;;;;5073664;28;20040;-70
2022/05/24 01:24:27;;;;;;;2.10;1.02;;;13.40;99.90;;;;;;5073548;28;20070;-70
2022/05/24 01:26:55;;;;;;;2.30;1.10;;;13.40;99.90;;;;;;5073546;28;20118;-70
2022/05/24 01:29:23;;;;;;;1.42;0.70;;;13.40;99.90;;;;;;5074004;28;20037;-70
2022/05/24 01:37:20;;;;;;;2.47;1.30;;;13.30;99.90;;;;;;5073535;28;20483;-70
2022/05/24 01:39:52;;;;;;;1.30;0.90;;;13.30;99.90;;;;;;5072619;28;20097;-70
2022/05/24 01:42:19;;;;;;;2.42;1.23;;;13.30;99.90;;;;;;5091991;28;20436;-71
2022/05/24 01:44:48;;;;;;;5.07;1.50;;;13.30;99.90;;;;;;5073732;28;20130;-70
2022/05/24 01:47:17;;;;;;;3.03;1.58;;;13.30;99.90;;;;;;5057254;28;20043;-70
2022/05/24 01:49:53;;;;;;;2.33;1.50;;;13.30;99.90;;;;;;5073075;28;20093;-70
2022/05/24 01:52:27;;;;;;;4.65;1.98;;;13.30;99.90;;;;;;5056799;28;20032;-71
2022/05/24 01:54:57;;;;;;;2.67;1.58;;;13.30;99.90;;;;;;5055791;28;20046;-70
2022/05/24 01:57:27;;;;;;;4.45;2.20;;;13.30;99.90;;;;;;5073574;28;20036;-70
2022/05/24 01:59:56;;;;;;;5.63;1.98;;;13.30;99.90;;;;;;5073450;28;20536;-70
2022/05/24 02:02:22;;;;;;;4.85;2.50;;;13.30;99.90;;;;;;5073066;28;20087;-71
2022/05/24 02:04:48;;;;;;;7.13;3.05;;;13.30;99.90;;;;;;5091212;28;20051;-70
2022/05/24 02:07:18;;;;;;;4.65;2.80;;;13.30;99.90;;;;;;5073420;28;20101;-71
2022/05/24 02:09:47;;;;;;;3.60;1.80;;;13.30;99.90;;;;;;5072192;28;20065;-70
2022/05/24 02:12:24;;;;;;;4.07;2.28;;;13.30;99.90;;;;;;5073421;28;20072;-70
2022/05/24 02:15:07;;;;;;;5.72;2.50;;;13.30;99.90;;;;;;5067728;28;20184;-70
2022/05/24 02:17:40;;;;;;;4.45;2.30;;;13.30;99.90;;;;;;5053328;28;20055;-71
2022/05/24 02:20:09;;;;;;;6.90;2.75;;;13.30;99.90;;;;;;5051618;28;20074;-70
2022/05/24 02:22:37;;;;;;;4.95;2.75;;;13.30;99.90;;;;;;5086327;28;20045;-70
2022/05/24 02:25:09;;;;;;;6.82;2.40;;;13.30;99.90;;;;;;5035246;28;20047;-70
2022/05/24 02:27:40;;;;;;;4.75;2.60;;;13.30;99.90;;;;;;5089631;28;20048;-70
2022/05/24 02:30:06;;;;;;;5.75;3.10;;;13.30;99.90;;;;;;5056371;28;20040;-70
2022/05/24 02:32:32;;;;;;;4.93;2.60;;;13.30;99.90;;;;;;5069226;28;20513;-70
2022/05/24 02:34:57;;;;;;;3.88;2.15;;;13.30;99.90;;;;;;5068807;28;20094;-70
2022/05/24 02:37:24;;;;;;;5.97;2.92;;;13.40;99.90;;;;;;5069307;28;20049;-70
2022/05/24 02:42:34;;;;;;;8.10;3.08;;;13.40;99.90;;;;;;5069488;28;20048;-70
2022/05/24 02:45:00;;;;;;;5.72;3.22;;;13.40;99.90;;;;;;5052148;28;20394;-70
2022/05/24 02:47:25;;;;;;;5.40;3.15;;;13.40;99.90;;;;;;5069031;28;20480;-70
2022/05/24 02:49:51;;;;;;;9.38;3.28;;;13.40;99.90;;;;;;5051921;28;20040;-70
2022/05/24 02:52:16;;;;;;;6.40;3.17;;;13.40;99.90;;;;;;5052181;28;20256;-70
2022/05/24 02:54:43;;;;;;;7.97;3.88;;;13.40;99.90;;;;;;5051150;28;20051;-70
2022/05/24 02:57:08;;;;;;;13.25;4.35;;;13.40;99.90;;;;;;5068670;28;20123;-70
2022/05/24 02:59:34;;;;;;;8.30;4.13;;;13.50;99.90;;;;;;5068906;28;20166;-70
2022/05/24 03:02:04;;;;;;;8.43;3.97;;;13.50;99.90;;;;;;5069779;28;20045;-70
2022/05/24 03:04:29;;;;;;;7.65;4.28;;;13.50;99.90;;;;;;5068693;28;20036;-70
2022/05/24 03:09:39;;;;;;;8.75;4.10;;;13.50;99.90;;;;;;5067304;28;20052;-70
2022/05/24 03:14:52;;;;;;;8.30;4.55;;;13.60;99.90;;;;;;5068024;28;20044;-70
2022/05/24 03:17:19;;;;;;;8.70;4.32;;;13.60;99.90;;;;;;5068388;28;20086;-70
2022/05/24 03:19:45;;;;;;;11.20;5.32;;;13.60;99.90;;;;;;5067913;28;20044;-70
2022/05/24 03:22:13;;;;;;;13.02;5.25;;;13.60;99.90;;;;;;5068429;28;20052;-70
2022/05/24 03:24:39;;;;;;;10.27;4.95;;;13.60;99.90;;;;;;5067418;28;20044;-70
2022/05/24 03:27:11;;;;;;;9.88;4.90;;;13.60;99.90;;;;;;5051561;28;20052;-70
2022/05/24 03:29:38;;;;;;;10.00;5.05;;;13.60;99.90;;;;;;5052188;28;20493;-70
2022/05/24 03:32:05;;;;;;;9.68;5.07;;;13.60;99.90;;;;;;5051782;28;20053;-70
2022/05/24 03:34:30;;;;;;;10.88;5.60;;;13.70;99.90;;;;;;5068176;28;20097;-70
2022/05/24 03:36:56;;;;;;;12.27;6.18;;;13.70;99.90;;;;;;5051240;28;20123;-70
2022/05/24 03:39:21;;;;;;;9.60;5.30;;;13.70;99.90;;;;;;5050513;28;20103;-70
2022/05/24 03:41:47;;;;;;;10.43;5.25;;;13.70;99.90;;;;;;5068317;28;20051;-70
2022/05/24 03:44:13;;;;;;;9.02;5.15;;;13.70;99.90;;;;;;5051228;28;20040;-70
2022/05/24 03:46:38;;;;;;;10.02;5.13;;;13.70;99.90;;;;;;5067817;28;20076;-70
2022/05/24 03:49:05;;;;;;;10.02;5.07;;;13.70;99.90;;;;;;5051620;28;20032;-70
2022/05/24 03:51:30;;;;;;;9.00;4.15;;;13.70;99.90;;;;;;5067769;28;20524;-70
2022/05/24 03:53:56;;;;;;;9.23;5.05;;;13.70;99.90;;;;;;5068038;28;20036;-70
2022/05/24 03:56:22;;;;;;;10.88;5.60;;;13.70;99.90;;;;;;5066788;28;20501;-70
2022/05/24 03:58:48;;;;;;;11.25;5.22;;;13.70;99.90;;;;;;5067559;28;20048;-70
2022/05/24 04:01:13;;;;;;;9.02;4.45;;;13.80;99.90;;;;;;5068792;28;20140;-70
2022/05/24 04:03:39;;;;;;;11.07;4.82;;;13.80;99.90;;;;;;5067926;28;20040;-70
2022/05/24 04:06:04;;;;;;;9.70;4.60;;;13.80;99.90;;;;;;5050849;28;20505;-70
2022/05/24 04:08:30;;;;;;;9.82;4.57;;;13.80;99.90;;;;;;5067581;28;20048;-70
2022/05/24 04:11:06;;;;;;;11.52;5.00;;;13.70;99.90;;;;;;5066212;28;20037;-70
2022/05/24 04:13:32;;;;;;;8.40;4.57;;;13.80;99.90;;;;;;5067438;28;20406;-70
2022/05/24 04:15:58;;;;;;;9.45;5.03;;;13.80;99.90;;;;;;5052776;28;20033;-70
2022/05/24 04:18:24;;;;;;;8.77;4.68;;;13.70;99.90;;;;;;5047625;28;20302;-70
2022/05/24 04:20:49;;;;;;;11.07;3.72;;;13.80;99.90;;;;;;5047061;28;20044;-70
2022/05/24 04:23:17;;;;;;;9.25;4.85;;;13.80;99.90;;;;;;5047569;28;20033;-70
2022/05/24 04:25:43;;;;;;;10.02;4.70;;;13.80;99.90;;;;;;5047630;28;20037;-70
2022/05/24 04:28:09;;;;;;;8.73;4.53;;;13.80;99.90;;;;;;5063981;28;20044;-70
2022/05/24 04:30:35;;;;;;;8.43;4.93;;;13.80;99.90;;;;;;5067395;28;20052;-70
2022/05/24 04:33:00;;;;;;;9.82;4.63;;;13.80;99.90;;;;;;5066914;28;20055;-70
2022/05/24 04:35:26;;;;;;;10.23;4.70;;;13.80;99.90;;;;;;5066944;28;20433;-70
2022/05/24 04:37:52;;;;;;;8.90;4.70;;;13.80;99.90;;;;;;5066982;28;20079;-70
2022/05/24 04:40:18;;;;;;;11.27;4.75;;;13.80;99.90;;;;;;5066301;28;20058;-70
2022/05/24 04:42:43;;;;;;;7.50;4.40;;;13.80;99.90;;;;;;5067480;28;20569;-70
2022/05/24 04:45:14;;;;;;;11.05;5.00;;;13.80;99.90;;;;;;5050619;28;20047;-70
2022/05/24 04:47:40;;;;;;;9.15;3.97;;;13.80;99.90;;;;;;5067368;28;20051;-70
2022/05/24 04:50:10;;;;;;;6.82;3.90;;;13.90;99.90;;;;;;5050612;28;20123;-70
2022/05/24 04:52:39;;;;;;;8.25;4.45;;;13.90;99.90;;;;;;5067758;28;20051;-70
2022/05/24 04:55:07;;;;;;;9.32;4.60;;;13.90;99.90;;;;;;5066438;28;20032;-70
2022/05/24 04:57:33;;;;;;;9.98;5.40;;;13.90;99.90;;;;;;5067351;28;20048;-70
2022/05/24 04:59:58;;;;;;;10.98;5.13;;;13.90;99.90;;;;;;5066913;28;20060;-70
2022/05/24 05:02:24;;;;;;;10.65;4.90;;;13.90;99.90;;;;;;5068539;28;20119;-70
2022/05/24 05:04:50;;;;;;;10.30;4.95;;;13.90;99.90;;;;;;5066559;28;20467;-70
2022/05/24 05:07:19;;;;;;;12.18;4.78;;;13.90;99.90;;;;;;5067272;28;20478;-70
2022/05/24 05:09:45;;;;;;;9.27;5.40;;;13.90;99.90;;;;;;5065761;28;20512;-70
2022/05/24 05:12:11;;;;;;;9.77;5.38;;;13.80;99.90;;;;;;5067091;28;20044;-70
2022/05/24 05:14:39;;;;;;;15.50;5.70;;;13.80;99.90;;;;;;5066586;28;20444;-70
2022/05/24 05:17:04;;;;;;;9.85;4.70;;;13.90;99.90;;;;;;5066989;28;20067;-70
2022/05/24 05:19:31;;;;;;;12.35;5.13;;;13.90;99.90;;;;;;5066861;28;20406;-70
2022/05/24 05:21:56;;;;;;;14.13;6.63;;;13.80;99.90;;;;;;5066567;28;20050;-70
2022/05/24 05:24:23;;;;;;;14.88;5.30;;;13.80;99.90;;;;;;5066656;28;20079;-70
2022/05/24 05:26:49;;;;;;;12.65;5.05;;;13.80;99.90;;;;;;5066629;28;20040;-70
2022/05/24 05:29:14;;;;;;;10.27;4.78;;;13.90;99.90;;;;;;5066501;28;20135;-70
2022/05/24 05:31:40;;;;;;;10.57;5.88;;;13.90;99.90;;;;;;5068358;28;20448;-70
2022/05/24 05:34:06;;;;;;;12.07;5.80;;;13.80;99.90;;;;;;5069805;28;20040;-70
2022/05/24 05:36:33;;;;;;;10.43;5.55;;;13.90;99.90;;;;;;5053453;28;20127;-70
2022/05/24 05:38:59;;;;;;;8.95;4.68;;;13.80;99.90;;;;;;5069557;28;20040;-70
2022/05/24 05:41:34;;;;;;;8.13;4.40;;;13.80;99.90;;;;;;5069195;28;20097;-70
2022/05/24 05:44:00;;;;;;;9.80;4.77;;;13.80;99.90;;;;;;5069739;28;20040;-70
2022/05/24 05:46:26;;;;;;;11.40;5.65;;;13.80;99.90;;;;;;5069800;28;20043;-70
2022/05/24 05:48:52;;;;;;;9.05;4.63;;;13.80;99.90;;;;;;5053245;28;20401;-70
2022/05/24 05:51:18;;;;;;;8.57;4.38;;;13.70;99.90;;;;;;5069687;28;20047;-70
2022/05/24 05:53:45;;;;;;;11.02;4.38;;;13.70;99.90;;;;;;5070033;28;20131;-70
2022/05/24 05:56:20;;;;;;;7.28;3.72;;;13.80;99.90;;;;;;5072109;28;20585;-70
2022/05/24 05:58:48;;;;;;;8.77;4.03;;;13.70;99.90;;;;;;5073350;28;20036;-70
2022/05/24 06:01:20;;;;;;;8.40;4.63;;;13.80;99.90;;;;;;5056838;28;20047;-70
2022/05/24 06:03:46;;;;;;;9.77;4.85;;;13.80;99.90;;;;;;5073632;28;20047;-70
2022/05/24 06:06:16;;;;;;;9.40;4.80;;;13.80;99.90;;;;;;5073109;28;20177;-70
2022/05/24 06:08:42;;;;;;;7.25;4.05;;;13.80;99.90;;;;;;5072996;28;20044;-70
2022/05/24 06:11:07;;;;;;;8.57;4.35;;;13.80;99.90;;;;;;5072334;28;20393;-70
2022/05/24 06:13:33;;;;;;;9.35;4.43;;;13.80;99.90;;;;;;5073385;28;20039;-70
2022/05/24 06:15:59;;;;;;;8.55;4.18;;;13.90;99.90;;;;;;5076328;28;20505;-70
2022/05/24 06:18:24;;;;;;;7.20;3.83;;;13.90;99.90;;;;;;5086820;28;20194;-70
2022/05/24 06:20:50;;;;;;;9.57;4.90;;;13.90;99.90;;;;;;5052463;28;20574;-70
2022/05/24 06:23:15;;;;;;;7.57;4.40;;;14.00;99.90;;;;;;5069523;28;20036;-70
2022/05/24 06:25:42;;;;;;;7.22;3.80;;;13.90;99.90;;;;;;5051883;28;20044;-70
2022/05/24 06:28:13;;;;;;;7.97;4.10;;;14.00;99.90;;;;;;5085910;28;20414;-70
2022/05/24 06:30:38;;;;;;;8.35;4.85;;;13.90;99.90;;;;;;5052500;28;20119;-70
2022/05/24 06:33:04;;;;;;;8.23;4.07;;;13.90;99.90;;;;;;5070042;28;20521;-70
2022/05/24 06:35:30;;;;;;;7.72;4.25;;;13.90;99.90;;;;;;5052220;28;20047;-70
2022/05/24 06:37:56;;;;;;;8.20;4.18;;;13.80;99.90;;;;;;5035876;28;20182;-70
2022/05/24 06:40:21;;;;;;;6.70;4.38;;;13.80;99.90;;;;;;5035012;28;20058;-70
2022/05/24 06:42:47;;;;;;;6.60;3.63;;;13.80;99.90;;;;;;5052355;28;20070;-70
2022/05/24 06:45:13;;;;;;;6.30;3.53;;;13.80;99.90;;;;;;5036000;28;20079;-70
2022/05/24 06:47:40;;;;;;;6.22;3.22;;;13.90;99.90;;;;;;5052094;28;20451;-70
2022/05/24 06:50:06;;;;;;;6.75;3.88;;;13.90;99.90;;;;;;5052248;28;20105;-70
2022/05/24 06:52:32;;;;;;;6.90;3.65;;;14.00;99.90;;;;;;5052605;28;20040;-70
2022/05/24 06:54:58;;;;;;;6.82;3.55;;;14.00;99.90;;;;;;5050995;28;20532;-70
2022/05/24 06:57:23;;;;;;;7.90;3.75;;;14.00;99.90;;;;;;5052271;28;20502;-70
2022/05/24 07:02:33;;;;;;;8.90;3.88;;;14.00;99.90;;;;;;5070338;28;20426;-70
2022/05/24 07:05:06;;;;;;;6.47;3.80;;;14.00;99.90;;;;;;5060547;28;20046;-70
2022/05/24 07:07:32;;;;;;;7.97;3.90;;;14.00;99.90;;;;;;5055386;28;20051;-71
2022/05/24 07:09:58;;;;;;;7.90;3.60;;;14.00;99.90;;;;;;5071235;28;20520;-70
2022/05/24 07:12:25;;;;;;;8.52;3.90;;;14.00;99.90;;;;;;5072423;28;20144;-70
2022/05/24 07:14:51;;;;;;;8.05;3.83;;;13.90;99.90;;;;;;5071273;28;20032;-70
2022/05/24 07:17:17;;;;;;;7.10;3.85;;;13.90;99.90;;;;;;5071908;28;20090;-70
2022/05/24 07:19:44;;;;;;;8.63;3.40;;;13.90;99.90;;;;;;5071431;28;20044;-70
2022/05/24 07:22:10;;;;;;;5.30;3.00;;;13.90;99.90;;;;;;5071950;28;20286;-70
2022/05/24 07:24:36;;;;;;;8.13;3.33;;;14.00;99.90;;;;;;5071150;28;20047;-70
2022/05/24 07:27:04;;;;;;;10.02;3.58;;;13.90;99.90;;;;;;5090326;28;20466;-70
2022/05/24 07:29:33;;;;;;;7.60;3.85;;;13.90;99.90;;;;;;5071386;28;20060;-70
2022/05/24 07:31:59;;;;;;;6.72;2.92;;;13.90;99.90;;;;;;5089612;28;20048;-70
2022/05/24 07:34:25;;;;;;;6.95;3.53;;;13.90;99.90;;;;;;5089458;28;20504;-70
2022/05/24 07:36:50;;;;;;;9.73;4.35;;;13.90;99.90;;;;;;5071504;28;20074;-70
2022/05/24 07:39:16;;;;;;;5.43;2.80;;;13.90;99.90;;;;;;5054147;28;20513;-70
2022/05/24 07:47:11;;;;;;;5.38;2.88;;;13.90;99.90;;;;;;5071312;28;20044;-70
2022/05/24 07:49:37;;;;;;;5.78;3.38;;;13.90;99.90;;;;;;5071068;28;20043;-70
2022/05/24 07:52:04;;;;;;;11.95;3.75;;;13.90;99.90;;;;;;5071082;28;20485;-70
2022/05/24 07:54:31;;;;;;;5.30;3.28;;;13.90;99.90;;;;;;5087944;28;20028;-70
2022/05/24 07:56:56;;;;;;;5.80;3.08;;;14.00;99.90;;;;;;5070980;28;20194;-70
2022/05/24 07:59:22;;;;;;;6.72;3.33;;;14.00;99.90;;;;;;5071101;28;20481;-69
2022/05/24 08:01:48;;;;;;;9.88;3.60;;;14.00;99.90;;;;;;5070729;28;20118;-70
2022/05/24 08:04:13;;;;;;;9.27;4.45;;;14.00;99.90;;;;;;5071101;28;20344;-70
2022/05/24 08:06:39;;;;;;;5.20;3.03;;;14.00;99.90;;;;;;5053990;28;20214;-70
2022/05/24 08:09:05;;;;;;;6.03;3.72;;;14.00;99.90;;;;;;5070485;28;20040;-70
2022/05/24 08:11:31;;;;;;;5.65;3.42;;;14.00;99.90;;;;;;5070118;28;20247;-70
2022/05/24 08:13:59;;;;;;;9.00;3.35;;;14.00;99.90;;;;;;5070566;28;20393;-70
2022/05/24 08:16:25;;;;;;;4.65;2.83;;;14.10;99.90;;;;;;5052535;28;20074;-70
2022/05/24 08:18:51;;;;;;;5.05;3.05;;;14.10;99.90;;;;;;5050293;28;20402;-70
2022/05/24 08:21:16;;;;;;;7.80;3.65;;;14.20;99.90;;;;;;5050899;28;20036;-70
2022/05/24 08:23:42;;;;;;;5.03;3.33;;;14.30;99.90;;;;;;5050633;28;20498;-70
2022/05/24 08:26:08;;;;;;;7.05;3.33;;;14.30;99.90;;;;;;5083637;28;20044;-70
2022/05/24 08:28:33;;;;;;;6.35;3.80;;;14.40;99.90;;;;;;5070900;28;20055;-70
2022/05/24 08:30:59;;;;;;;7.80;3.40;;;14.40;99.90;;;;;;5054142;28;20046;-70
2022/05/24 08:33:28;;;;;;;6.05;3.75;;;14.40;99.90;;;;;;5070820;28;20070;-70
2022/05/24 08:35:54;;;;;;;7.43;3.67;;;14.40;99.90;;;;;;5070663;28;20040;-69
2022/05/24 08:38:23;;;;;;;9.00;3.42;;;14.50;99.90;;;;;;5053856;28;20489;-70
2022/05/24 08:40:49;;;;;;;8.40;3.53;;;14.60;99.90;;;;;;5053166;28;20546;-70
2022/05/24 08:43:26;;;;;;;8.88;3.13;;;14.70;99.90;;;;;;5088791;28;20089;-69
2022/05/24 08:48:57;;;;;;;7.13;3.20;;;15.00;99.90;;;;;;5070080;28;20502;-69
2022/05/24 08:51:33;;;;;;;3.92;2.38;;;15.10;99.90;;;;;;5070153;28;20169;-69
2022/05/24 08:54:12;;;;;;;3.63;2.33;;;15.10;99.90;;;;;;5053569;28;20039;-69
2022/05/24 08:56:47;;;;;;;5.53;2.40;;;15.20;99.90;;;;;;5069959;28;20548;-70
2022/05/24 08:59:32;;;;;;;3.25;2.08;;;15.20;99.90;;;;;;5070495;28;20036;-70
2022/05/24 09:01:59;;;;;;;4.97;2.20;;;15.20;99.90;;;;;;5070083;28;20040;-69
2022/05/24 09:04:26;;;;;;;2.40;1.70;;;15.20;99.90;;;;;;5053215;28;20532;-70
2022/05/24 09:06:53;;;;;;;3.03;1.67;;;15.30;99.90;;;;;;5070268;28;20040;-70
2022/05/24 09:09:44;;;;;;;6.35;1.75;;;15.40;99.90;;;;;;5069195;28;20044;-70
2022/05/24 09:12:21;;;;;;;3.83;1.65;;;15.40;99.90;;;;;;5069958;28;20036;-70
2022/05/24 09:15:09;;;;;;;2.42;1.50;;;15.50;99.90;;;;;;5069958;28;20079;-70
2022/05/24 09:17:53;;;;;;;2.75;1.85;;;15.40;99.90;;;;;;5053217;28;20047;-70
2022/05/24 09:20:25;;;;;;;3.30;1.75;;;15.30;99.90;;;;;;5053158;28;20051;-70
2022/05/24 09:23:04;;;;;;;2.72;1.48;;;15.30;99.90;;;;;;5070021;28;20516;-70
2022/05/24 09:25:30;;;;;;;3.00;1.70;;;15.30;99.90;;;;;;5052626;28;20101;-70
2022/05/24 09:27:55;;;;;;;3.70;2.08;;;15.50;99.90;;;;;;5070088;28;20133;-70
2022/05/24 09:30:25;;;;;;;2.10;1.52;;;15.50;99.90;;;;;;5073178;28;20125;-70
2022/05/24 09:32:51;;;;;;;2.70;1.38;;;15.50;99.90;;;;;;5073387;28;20528;-70
2022/05/24 09:35:17;;;;;;;2.70;1.67;;;15.60;99.90;;;;;;5073774;28;20048;-70
2022/05/24 09:37:46;;;;;;;2.90;1.85;;;15.60;99.90;;;;;;5074022;28;20048;-70
2022/05/24 09:40:21;;;;;;;4.38;1.85;;;15.70;99.90;;;;;;5072862;28;20044;-70
2022/05/24 09:42:48;;;;;;;2.22;1.27;;;15.70;99.90;;;;;;5073644;28;20052;-70
2022/05/24 09:45:16;;;;;;;4.25;1.52;;;15.70;99.90;;;;;;5073770;28;20098;-70
2022/05/24 09:47:45;;;;;;;1.80;1.08;;;15.60;99.90;;;;;;5073668;28;20040;-70
2022/05/24 09:50:31;;;;;;;1.58;1.00;;;15.40;99.90;;;;;;5073468;28;20046;-70
2022/05/24 09:53:03;;;;;;;1.98;1.27;;;15.20;99.90;;;;;;5073738;28;20036;-70
2022/05/24 09:56:02;;;;;;;2.38;1.15;;;15.20;99.90;;;;;;5090717;28;20044;-70
2022/05/24 09:58:36;;;;;;;2.53;1.38;;;15.10;99.90;;;;;;5073577;28;20417;-70
2022/05/24 10:01:08;;;;;;;2.92;1.60;;;15.20;99.90;;;;;;5073491;28;20032;-70
2022/05/24 10:03:44;;;;;;;2.20;1.38;;;15.20;99.90;;;;;;5073485;28;20046;-70
2022/05/24 10:06:24;;;;;;;2.35;1.60;;;15.30;99.90;;;;;;5073117;28;20122;-70
2022/05/24 10:08:56;;;;;;;2.00;1.15;;;15.30;99.90;;;;;;5091051;28;20058;-70
2022/05/24 10:11:29;;;;;;;3.60;1.83;;;15.30;99.90;;;;;;5072221;28;20047;-70
2022/05/24 10:14:24;;;;;;;5.13;1.55;;;15.50;99.90;;;;;;5072684;28;20040;-70
2022/05/24 10:17:00;;;;;;;4.20;1.27;;;15.80;99.90;;;;;;5072880;28;20401;-70
2022/05/24 10:20:01;;;;;;;1.42;1.00;;;15.90;99.90;;;;;;5072691;28;20422;-70
2022/05/24 10:22:50;;;;;;;2.05;1.00;;;15.90;99.90;;;;;;5073219;28;20374;-70
2022/05/24 10:25:40;;;;;;;1.13;0.77;;;15.90;99.90;;;;;;5071897;28;20047;-70
2022/05/24 10:28:26;;;;;;;1.30;0.88;;;16.00;99.90;;;;;;5072761;28;20040;-70
2022/05/24 10:30:55;;;;;;;1.50;0.90;;;16.10;99.90;;;;;;5056097;28;20126;-70
2022/05/24 10:39:57;;;;;;;1.00;0.57;;;16.10;99.90;;;;;;5071546;28;20044;-70
2022/05/24 10:42:31;;;;;;;0.47;0.20;;;16.10;99.90;;;;;;5072278;28;20405;-70
2022/05/24 10:45:05;;;;;;;0.20;0.13;;;16.00;99.90;;;;;;5072679;28;20043;-70
2022/05/24 10:47:47;;;;;;;0.17;0.17;;;15.80;99.90;;;;;;5056153;28;20043;-70
2022/05/24 10:50:34;;;;;;;1.48;0.20;;;15.40;99.90;;;;;;5072407;28;20040;-70
2022/05/24 10:53:19;;;;;;;0.55;0.20;;;15.00;99.90;;;;;;5072310;28;20401;-70
2022/05/24 10:56:09;;;;;;;1.20;0.20;;;14.60;99.90;;;;;;5070975;28;20040;-70
2022/05/24 10:58:39;;;;;;;0.35;0.10;;;14.40;99.90;;;;;;5056129;28;20474;-70
2022/05/24 11:01:23;;;;;;;0.22;0.10;;;14.20;99.90;;;;;;5072385;28;20050;-70
2022/05/24 11:03:54;;;;;;;0.35;0.13;;;14.10;99.90;;;;;;5072109;28;20040;-70
2022/05/24 11:06:29;;;;;;;0.17;0.10;;;14.00;99.90;;;;;;5072062;28;20047;-70
2022/05/24 11:09:03;;;;;;;0.22;0.10;;;13.90;99.90;;;;;;5071741;28;20047;-70
2022/05/24 11:11:43;;;;;;;0.35;0.20;;;13.90;99.90;;;;;;5071040;28;20096;-70
2022/05/24 11:14:33;;;;;;;0.65;0.20;;;13.90;99.90;;;;;;5055213;28;20051;-70
2022/05/24 11:17:00;;;;;;;0.47;0.35;;;13.90;99.90;;;;;;5071728;28;20043;-70
2022/05/24 11:19:31;;;;;;;0.75;0.30;;;13.80;99.90;;;;;;5071464;28;20357;-70
2022/05/24 11:22:06;;;;;;;1.95;0.47;;;13.80;99.90;;;;;;5071594;28;20036;-70
2022/05/24 11:24:47;;;;;;;0.30;0.30;;;13.80;99.90;;;;;;5071092;28;20044;-70
2022/05/24 11:27:22;;;;;;;0.95;0.50;;;13.90;99.90;;;;;;5071960;28;20075;-70
2022/05/24 11:29:56;;;;;;;1.13;0.60;;;14.00;99.90;;;;;;5071497;28;20147;-70
2022/05/24 11:32:45;;;;;;;2.35;0.57;;;14.00;99.90;;;;;;5071439;28;20056;-70
2022/05/24 11:35:20;;;;;;;1.65;0.52;;;14.10;99.90;;;;;;5070741;28;20051;-70
2022/05/24 11:37:55;;;;;;;1.20;0.60;;;14.20;99.90;;;;;;5071396;28;20093;-70
2022/05/24 11:40:38;;;;;;;0.70;0.40;;;14.20;99.90;;;;;;5070165;28;20493;-70
2022/05/24 11:43:06;;;;;;;0.30;0.30;;;14.20;99.90;;;;;;5089564;28;20076;-70
2022/05/24 11:45:32;;;;;;;0.73;0.50;;;14.20;99.90;;;;;;5071482;28;20485;-70
2022/05/24 11:48:07;;;;;;;0.63;0.38;;;14.20;99.90;;;;;;5054764;28;20066;-70
2022/05/24 11:50:47;;;;;;;0.73;0.27;;;14.10;99.90;;;;;;5071088;28;20040;-70
2022/05/24 11:53:15;;;;;;;0.85;0.40;;;14.10;99.90;;;;;;5070806;28;20274;-70
2022/05/24 11:55:53;;;;;;;0.20;0.20;;;14.00;99.90;;;;;;5053499;28;20040;-70
2022/05/24 11:58:19;;;;;;;2.28;0.60;;;14.00;99.90;;;;;;5070960;28;20048;-70
2022/05/24 12:01:22;;;;;;;0.47;0.20;;;14.10;99.90;;;;;;5054871;28;20054;-70
2022/05/24 12:10:26;;;;;;;0.38;0.30;;;14.50;99.90;;;;;;5069820;28;20134;-70
2022/05/24 12:13:03;;;;;;;0.47;0.40;;;14.60;99.90;;;;;;5070756;28;20039;-70
2022/05/24 12:15:29;;;;;;;0.35;0.30;;;14.70;99.90;;;;;;5070895;28;20077;-70
2022/05/24 12:17:57;;;;;;;0.70;0.32;;;14.70;99.90;;;;;;5070954;28;20036;-70
2022/05/24 12:20:35;;;;;;;0.43;0.22;;;14.80;99.90;;;;;;5070560;28;20043;-70
2022/05/24 12:23:04;;;;;;;0.85;0.40;;;14.80;99.90;;;;;;5089016;28;20101;-70
2022/05/24 12:26:07;;;;;;;0.60;0.35;;;14.90;99.90;;;;;;5070590;28;20134;-70
2022/05/24 12:28:36;;;;;;;1.05;0.32;;;15.00;99.90;;;;;;5051317;28;20045;-70
2022/05/24 12:31:18;;;;;;;1.27;0.43;;;15.10;99.90;;;;;;5051118;28;20045;-70
2022/05/24 12:33:53;;;;;;;0.70;0.40;;;15.10;99.90;;;;;;5047461;28;20110;-70
2022/05/24 12:36:40;;;;;;;1.65;0.38;;;15.00;99.90;;;;;;5047356;28;20045;-69
2022/05/24 12:39:09;;;;;;;0.57;0.40;;;15.10;99.90;;;;;;5030693;28;20494;-70
2022/05/24 12:41:39;;;;;;;0.52;0.30;;;15.10;99.90;;;;;;5030705;28;20044;-70
2022/05/24 12:44:31;;;;;;;1.02;0.60;;;15.10;99.90;;;;;;5030536;28;20041;-70
2022/05/24 12:47:06;;;;;;;0.50;0.43;;;15.20;99.90;;;;;;5046979;28;20048;-70
2022/05/24 12:49:35;;;;;;;3.70;0.37;;;15.10;99.90;;;;;;5046752;28;20045;-70
2022/05/24 12:52:13;;;;;;;0.20;0.20;;;15.00;99.90;;;;;;5047006;28;20287;-70
2022/05/24 12:54:50;;;;;;;0.10;0.10;;;14.70;99.90;;;;;;5046315;28;20041;-70
2022/05/24 12:57:22;;;;;;;1.00;0.28;;;14.30;99.90;;;;;;5064057;28;20398;-70
2022/05/24 12:59:55;;;;;;;0.20;0.20;;;14.10;99.90;;;;;;5047205;28;20045;-70
2022/05/24 13:02:34;;;;;;;0.10;0.10;;;14.00;99.90;;;;;;5047025;28;20052;-70
2022/05/24 13:05:23;;;;;;;0.20;0.10;;;13.90;99.90;;;;;;5049489;28;20352;-70
2022/05/24 13:07:53;;;;;;;0.43;0.22;;;13.80;99.90;;;;;;5050987;28;20044;-70
2022/05/24 13:10:19;;;;;;;1.02;0.40;;;13.90;99.90;;;;;;5049704;28;20557;-70
2022/05/24 13:12:47;;;;;;;0.65;0.22;;;13.90;99.90;;;;;;5034556;28;20147;-70
2022/05/24 13:15:17;;;;;;;0.55;0.15;;;14.00;99.90;;;;;;5050698;28;20029;-69
2022/05/24 13:17:45;;;;;;;0.60;0.32;;;14.10;99.90;;;;;;5050702;28;20041;-70
2022/05/24 13:20:24;;;;;;;0.95;0.30;;;14.10;99.90;;;;;;5067252;28;20041;-70
2022/05/24 13:23:02;;;;;;;0.73;0.40;;;14.20;99.90;;;;;;5050944;28;20036;-70
2022/05/24 13:26:01;;;;;;;9.50;0.60;;;14.20;99.90;;;;;;5066329;28;20048;-70
2022/05/24 13:28:48;;;;;;;0.45;0.28;;;14.30;99.90;;;;;;5052079;28;20044;-70
2022/05/24 13:34:11;;;;;;;0.75;0.43;;;14.50;99.90;;;;;;5050408;28;20049;-70
2022/05/24 13:36:43;;;;;;;1.20;0.22;;;14.60;99.90;;;;;;5050475;28;20051;-69
2022/05/24 13:39:14;;;;;;;0.63;0.30;;;14.70;99.90;;;;;;5051519;28;20063;-70
2022/05/24 13:41:45;;;;;;;0.50;0.30;;;14.70;99.90;;;;;;5066745;28;20056;-69
2022/05/24 13:44:30;;;;;;;1.27;0.52;;;14.80;99.90;;;;;;5067392;28;20456;-70